createdAt,value
2023-03-07T00:06:15.293Z,5.49
2023-03-07T00:16:15.305Z,5.50
2023-03-07T00:26:16.182Z,5.51
2023-03-07T00:36:16.415Z,5.53
2023-03-07T00:46:16.254Z,5.55
2023-03-07T00:56:16.928Z,5.57
2023-03-07T01:06:17.555Z,5.58
2023-03-07T01:16:17.376Z,5.60
2023-03-07T01:26:17.751Z,5.60
2023-03-07T01:36:19.370Z,5.62
2023-03-07T01:46:21.283Z,5.62
2023-03-07T01:56:21.633Z,5.61
2023-03-07T02:06:21.467Z,5.59
2023-03-07T02:16:21.568Z,5.56
2023-03-07T02:26:21.609Z,5.52
2023-03-07T02:36:23.271Z,5.49
2023-03-07T02:46:23.577Z,5.48
2023-03-07T02:56:23.564Z,5.46
2023-03-07T03:06:25.328Z,5.45
2023-03-07T03:16:28.758Z,5.46
2023-03-07T03:26:29.609Z,5.48
2023-03-07T03:36:31.392Z,5.49
2023-03-07T03:46:33.247Z,5.50
2023-03-07T03:56:33.753Z,5.51
2023-03-07T04:06:33.935Z,5.53
2023-03-07T04:16:34.723Z,5.54
2023-03-07T04:26:34.581Z,5.51
2023-03-07T04:36:34.792Z,5.45
2023-03-07T04:46:34.796Z,5.39
2023-03-07T04:56:35.102Z,5.36
2023-03-07T05:06:36.558Z,5.34
2023-03-07T05:16:36.746Z,5.34
2023-03-07T05:26:36.719Z,5.36
2023-03-07T05:36:37.621Z,5.37
2023-03-07T05:46:38.207Z,5.36
2023-03-07T05:56:39.481Z,5.35
2023-03-07T06:06:40.127Z,5.32
2023-03-07T06:16:40.910Z,5.32
2023-03-07T06:26:41.166Z,5.33
2023-03-07T06:36:42.375Z,5.36
2023-03-07T06:46:44.623Z,5.40
2023-03-07T06:56:46.630Z,5.42
2023-03-07T07:06:46.857Z,5.45
2023-03-07T07:16:46.953Z,5.51
2023-03-07T07:26:46.902Z,5.60
2023-03-07T07:36:47.028Z,5.68
2023-03-07T07:46:46.946Z,5.76
2023-03-07T07:56:47.034Z,5.84
2023-03-07T08:06:46.785Z,5.89
2023-03-07T08:16:46.811Z,5.93
2023-03-07T08:26:46.831Z,5.94
2023-03-07T08:36:51.860Z,5.93
2023-03-07T08:46:51.915Z,5.93
2023-03-07T08:56:51.845Z,5.99
2023-03-07T09:06:51.910Z,6.11
2023-03-07T09:16:51.956Z,6.21
2023-03-07T09:26:52.535Z,6.29
2023-03-07T09:36:52.967Z,6.41
2023-03-07T09:46:52.970Z,6.51
2023-03-07T09:56:52.921Z,6.70
2023-03-07T10:06:52.973Z,6.95
2023-03-07T10:16:52.997Z,7.00
2023-03-07T10:26:52.926Z,6.92
2023-03-07T10:37:06.568Z,6.84
2023-03-07T10:46:56.373Z,6.74
2023-03-07T10:56:56.946Z,6.59
2023-03-07T11:06:57.183Z,6.51
2023-03-07T11:16:57.105Z,6.48
2023-03-07T11:26:57.016Z,6.49
2023-03-07T11:36:57.248Z,6.61
2023-03-07T11:46:57.104Z,6.76
2023-03-07T11:56:57.351Z,6.88
2023-03-07T12:06:57.072Z,6.97
2023-03-07T12:16:57.119Z,7.04
2023-03-07T12:26:57.158Z,7.06
2023-03-07T12:36:57.142Z,7.05
2023-03-07T12:46:57.242Z,7.12
2023-03-07T12:56:57.971Z,7.41
2023-03-07T13:06:58.267Z,7.79
2023-03-07T13:16:58.283Z,7.91
2023-03-07T13:27:01.785Z,7.75
2023-03-07T13:37:02.140Z,7.58
2023-03-07T13:47:04.266Z,7.51
2023-03-07T13:57:04.243Z,7.50
2023-03-07T14:07:04.717Z,7.47
2023-03-07T14:17:05.428Z,7.37
2023-03-07T14:27:05.237Z,7.24
2023-03-07T14:37:05.274Z,7.09
2023-03-07T14:47:05.394Z,6.89
2023-03-07T14:57:05.293Z,6.61
2023-03-07T15:07:05.854Z,6.38
2023-03-07T15:17:07.881Z,6.15
2023-03-07T15:27:10.163Z,5.89
2023-03-07T15:37:10.365Z,5.57
2023-03-07T15:47:10.410Z,5.22
2023-03-07T15:57:10.347Z,4.89
2023-03-07T16:07:10.395Z,4.61
2023-03-07T16:17:10.415Z,4.39
2023-03-07T16:27:10.466Z,4.24
2023-03-07T16:37:10.359Z,4.12
2023-03-07T16:47:10.422Z,3.98
2023-03-07T16:57:10.430Z,3.86
2023-03-07T17:07:10.836Z,3.75
2023-03-07T17:17:11.543Z,3.64
2023-03-07T17:27:11.572Z,3.55
2023-03-07T17:37:14.023Z,3.49
2023-03-07T17:47:14.534Z,3.44
2023-03-07T17:57:14.584Z,3.41
2023-03-07T18:07:16.429Z,3.42
2023-03-07T18:17:47.445Z,3.46
2023-03-07T18:27:37.517Z,3.54
2023-03-07T18:37:37.925Z,3.61
2023-03-07T18:47:38.615Z,3.61
2023-03-07T18:57:38.517Z,3.62
2023-03-07T19:07:38.603Z,3.64
2023-03-07T19:17:38.958Z,3.64
2023-03-07T19:27:39.558Z,3.61
2023-03-07T19:37:39.641Z,3.55
2023-03-07T19:47:39.685Z,3.51
2023-03-07T19:57:39.776Z,3.50
2023-03-07T20:07:39.593Z,3.48
2023-03-07T20:17:39.648Z,3.44
2023-03-07T20:27:40.682Z,3.38
2023-03-07T20:37:40.698Z,3.31
2023-03-07T20:47:40.832Z,3.26
2023-03-07T20:57:40.838Z,3.22
2023-03-07T21:07:40.791Z,3.20
2023-03-07T21:17:41.473Z,3.19
2023-03-07T21:27:41.809Z,3.18
2023-03-07T21:37:41.890Z,3.17
2023-03-07T21:47:41.845Z,3.16
2023-03-07T21:57:41.792Z,3.14
2023-03-07T22:07:41.728Z,3.12
2023-03-07T22:17:41.770Z,3.12
2023-03-07T22:27:43.031Z,3.15
2023-03-07T22:37:42.864Z,3.17
2023-03-07T22:47:42.862Z,3.21
2023-03-07T22:57:42.915Z,3.24
2023-03-07T23:07:43.297Z,3.22
2023-03-07T23:17:43.896Z,3.22
2023-03-07T23:27:43.836Z,3.26
2023-03-07T23:37:43.909Z,3.32
2023-03-07T23:47:43.955Z,3.37
2023-03-07T23:57:43.939Z,3.37
